PST,Max TemperatureF,Mean TemperatureF,Min TemperatureF,Max Dew PointF,MeanDew PointF,Min DewpointF,Max Humidity, Mean Humidity, Min Humidity, Max Sea Level PressureIn, Mean Sea Level PressureIn, Min Sea Level PressureIn, Max VisibilityMiles, Mean VisibilityMiles, Min VisibilityMiles, Max Wind SpeedMPH, Mean Wind SpeedMPH, Max Gust SpeedMPH,PrecipitationIn, CloudCover, Events, WindDirDegrees
2012-12-1,65,60,54,61,57,53,100,92,84,30.14,30.09,30.05,10,9,2,12,5,,0.06,6,Rain,128
2012-12-2,66,61,55,59,57,54,100,87,73,30.10,30.03,29.98,10,6,0,16,7,22,0.24,8,Fog-Rain,161
2012-12-3,65,57,48,55,52,47,100,86,72,30.23,30.17,30.10,10,6,0,9,4,12,0.00,6,Fog,319
2012-12-4,60,54,48,54,51,48,100,89,78,30.29,30.23,30.19,5,2,0,10,3,13,0.00,2,Fog,90
2012-12-5,66,56,46,54,49,45,100,82,63,30.22,30.18,30.08,9,3,0,10,3,13,0.01,6,Fog,346
2012-12-6,59,58,56,55,54,51,100,93,86,30.13,30.09,30.05,10,6,1,12,6,,0.01,8,Rain,328
2012-12-7,63,59,54,51,45,39,86,61,36,30.16,30.11,30.09,10,6,0,3,6,6,0.00,5,Fog,321
2012-12-8,59,48,36,49,42,36,100,84,67,30.11,30.08,30.04,8,3,0,13,3,28,0.00,3,Fog,306
2012-12-9,59,52,44,48,43,37,100,84,67,30.23,30.17,30.10,7,2,0,7,2,13,0.00,3,Fog,323
2012-12-10,56,46,36,48,41,36,100,86,72,30.28,30.21,30.15,4,1,0,5,0,7,0.00,4,Fog,67
2012-12-11,60,48,36,50,45,37,100,81,62,30.15,29.98,29.86,4,2,0,8,2,12,0.01,1,Fog,110
2012-12-12,53,45,37,49,43,36,100,89,77,29.94,29.89,29.86,10,4,0,15,4,20,0.38,6,Fog-Rain,339
2012-12-13,52,45,37,43,40,37,100,86,71,29.92,29.89,29.85,10,5,0,10,3,14,0.00,3,Fog,311
2012-12-14,50,40,29,39,32,27,100,78,56,30.04,29.91,29.86,10,4,0,8,2,12,0.00,1,Fog,167
2012-12-15,51,41,30,43,36,28,100,83,66,30.16,30.10,30.05,10,2,0,7,2,9,0.00,4,Fog,136
2012-12-16,60,46,31,44,37,30,100,72,43,30.18,30.13,30.10,10,4,0,8,3,10,0.00,3,Fog,106
2012-12-17,65,56,47,54,48,44,93,75,56,30.16,30.07,29.97,10,9,6,13,6,16,0.04,6,Rain,146
2012-12-18,54,45,35,49,37,28,93,67,41,30.15,30.01,29.95,10,10,9,24,11,30,T,3,,324
2012-12-19,50,38,25,34,30,24,100,75,50,30.36,30.29,30.16,10,9,0,10,2,14,0.00,0,Fog,71
2012-12-20,57,40,23,35,29,21,100,67,33,30.30,30.21,30.12,10,8,2,9,3,12,0.00,0,,127
2012-12-21,63,46,28,37,32,25,92,63,34,30.11,30.06,30.03,10,10,8,13,5,16,T,2,,137
2012-12-22,60,48,36,50,44,32,93,72,51,30.18,30.09,30.02,10,7,2,15,5,20,0.08,7,Rain,147
2012-12-23,52,48,43,50,47,42,100,95,89,30.20,30.14,29.98,10,4,0,12,5,21,0.36,7,Fog-Rain,138
2012-12-24,59,49,38,49,44,37,100,79,57,30.21,30.12,29.97,10,8,0,25,7,32,0.00,2,Fog,323
2012-12-25,49,44,38,45,41,37,100,93,86,30.20,30.10,29.93,9,2,0,16,4,24,0.15,7,Fog-Rain,55
2012-12-26,56,47,37,46,42,37,100,82,64,30.09,29.99,29.91,10,6,0,12,3,15,0.09,7,Fog-Rain,270
2012-12-27,53,43,32,44,40,32,100,82,63,30.22,30.14,30.08,10,6,0,15,4,18,0.00,5,Fog,308
2012-12-28,47,39,31,42,37,30,100,91,82,30.24,30.16,30.07,7,2,0,6,2,8,0.00,6,Fog,154
2012-12-29,53,46,39,42,40,38,96,78,59,30.09,30.04,30.00,10,4,0,13,5,18,0.02,5,Fog-Rain,27
2012-12-30,54,44,33,42,36,33,92,76,59,30.18,30.08,30.04,10,5,2,13,3,15,0.00,4,,320
2012-12-31,51,39,27,36,32,28,92,69,46,30.31,30.25,30.18,10,6,0,9,2,12,0.00,2,Fog,258